sensor_id;sensor_type;location;lat;lon;timestamp;P1;durP1;ratioP1;P2;durP2;ratioP2
38083;SDS011;23894;51.466;7.444;2023-03-16T00:01:47;9.90;;;5.13;;
38083;SDS011;23894;51.466;7.444;2023-03-16T00:03:48;8.90;;;5.03;;
38083;SDS011;23894;51.466;7.444;2023-03-16T00:05:50;11.18;;;5.35;;
38083;SDS011;23894;51.466;7.444;2023-03-16T00:07:51;11.88;;;5.30;;
38083;SDS011;23894;51.466;7.444;2023-03-16T00:09:52;8.02;;;5.57;;
38083;SDS011;23894;51.466;7.444;2023-03-16T00:11:53;10.68;;;5.32;;
38083;SDS011;23894;51.466;7.444;2023-03-16T00:13:54;10.75;;;5.70;;
38083;SDS011;23894;51.466;7.444;2023-03-16T00:15:57;10.70;;;5.40;;
38083;SDS011;23894;51.466;7.444;2023-03-16T00:17:58;8.93;;;4.93;;
38083;SDS011;23894;51.466;7.444;2023-03-16T00:19:59;11.02;;;5.60;;
38083;SDS011;23894;51.466;7.444;2023-03-16T00:22:05;10.02;;;4.93;;
38083;SDS011;23894;51.466;7.444;2023-03-16T00:24:06;8.93;;;5.25;;
38083;SDS011;23894;51.466;7.444;2023-03-16T00:26:08;9.68;;;5.10;;
38083;SDS011;23894;51.466;7.444;2023-03-16T00:28:09;10.15;;;5.57;;
38083;SDS011;23894;51.466;7.444;2023-03-16T00:30:12;10.45;;;5.55;;
38083;SDS011;23894;51.466;7.444;2023-03-16T00:32:15;9.07;;;5.25;;
38083;SDS011;23894;51.466;7.444;2023-03-16T00:34:16;7.47;;;5.03;;
38083;SDS011;23894;51.466;7.444;2023-03-16T00:36:17;9.82;;;4.80;;
38083;SDS011;23894;51.466;7.444;2023-03-16T00:38:18;15.82;;;6.00;;
38083;SDS011;23894;51.466;7.444;2023-03-16T00:40:20;13.00;;;4.95;;
38083;SDS011;23894;51.466;7.444;2023-03-16T00:42:22;11.02;;;5.40;;
38083;SDS011;23894;51.466;7.444;2023-03-16T00:44:26;8.57;;;5.13;;
38083;SDS011;23894;51.466;7.444;2023-03-16T00:48:28;8.82;;;5.13;;
38083;SDS011;23894;51.466;7.444;2023-03-16T00:50:33;9.70;;;5.25;;
38083;SDS011;23894;51.466;7.444;2023-03-16T00:52:34;10.77;;;5.25;;
38083;SDS011;23894;51.466;7.444;2023-03-16T00:54:35;10.63;;;4.90;;
38083;SDS011;23894;51.466;7.444;2023-03-16T00:56:36;10.90;;;4.85;;
38083;SDS011;23894;51.466;7.444;2023-03-16T00:58:38;10.52;;;5.22;;
38083;SDS011;23894;51.466;7.444;2023-03-16T01:00:42;10.63;;;4.90;;
38083;SDS011;23894;51.466;7.444;2023-03-16T01:02:43;9.98;;;5.18;;
38083;SDS011;23894;51.466;7.444;2023-03-16T01:04:44;11.57;;;5.32;;
38083;SDS011;23894;51.466;7.444;2023-03-16T01:06:45;11.45;;;5.35;;
38083;SDS011;23894;51.466;7.444;2023-03-16T01:08:46;8.30;;;5.13;;
38083;SDS011;23894;51.466;7.444;2023-03-16T01:10:47;9.23;;;4.93;;
38083;SDS011;23894;51.466;7.444;2023-03-16T01:12:48;10.57;;;5.50;;
38083;SDS011;23894;51.466;7.444;2023-03-16T01:14:49;10.98;;;5.72;;
38083;SDS011;23894;51.466;7.444;2023-03-16T01:16:50;10.18;;;5.22;;
38083;SDS011;23894;51.466;7.444;2023-03-16T01:18:51;8.65;;;5.07;;
38083;SDS011;23894;51.466;7.444;2023-03-16T01:20:52;9.52;;;5.25;;
38083;SDS011;23894;51.466;7.444;2023-03-16T01:22:53;10.23;;;5.15;;
38083;SDS011;23894;51.466;7.444;2023-03-16T01:24:54;10.65;;;5.30;;
38083;SDS011;23894;51.466;7.444;2023-03-16T01:26:55;9.57;;;5.35;;
38083;SDS011;23894;51.466;7.444;2023-03-16T01:30:59;10.85;;;4.90;;
38083;SDS011;23894;51.466;7.444;2023-03-16T01:33:00;8.63;;;4.80;;
38083;SDS011;23894;51.466;7.444;2023-03-16T01:35:02;10.00;;;5.13;;
38083;SDS011;23894;51.466;7.444;2023-03-16T01:37:03;9.05;;;4.95;;
38083;SDS011;23894;51.466;7.444;2023-03-16T01:39:05;10.75;;;5.10;;
38083;SDS011;23894;51.466;7.444;2023-03-16T01:41:06;10.10;;;5.00;;
38083;SDS011;23894;51.466;7.444;2023-03-16T01:43:09;10.00;;;5.30;;
38083;SDS011;23894;51.466;7.444;2023-03-16T01:47:31;9.98;;;4.80;;
38083;SDS011;23894;51.466;7.444;2023-03-16T01:49:37;9.57;;;4.63;;
38083;SDS011;23894;51.466;7.444;2023-03-16T01:53:43;9.82;;;4.47;;
38083;SDS011;23894;51.466;7.444;2023-03-16T01:55:44;10.38;;;4.70;;
38083;SDS011;23894;51.466;7.444;2023-03-16T01:57:46;10.90;;;4.95;;
38083;SDS011;23894;51.466;7.444;2023-03-16T01:59:51;9.32;;;5.10;;
38083;SDS011;23894;51.466;7.444;2023-03-16T02:01:53;10.02;;;4.50;;
38083;SDS011;23894;51.466;7.444;2023-03-16T02:06:00;10.73;;;4.45;;
38083;SDS011;23894;51.466;7.444;2023-03-16T02:08:02;7.95;;;4.88;;
38083;SDS011;23894;51.466;7.444;2023-03-16T02:10:04;8.60;;;4.53;;
38083;SDS011;23894;51.466;7.444;2023-03-16T02:12:06;8.48;;;4.70;;
38083;SDS011;23894;51.466;7.444;2023-03-16T02:14:09;8.07;;;4.40;;
38083;SDS011;23894;51.466;7.444;2023-03-16T02:16:10;9.25;;;4.60;;
38083;SDS011;23894;51.466;7.444;2023-03-16T02:18:12;9.57;;;4.68;;
38083;SDS011;23894;51.466;7.444;2023-03-16T02:22:23;7.78;;;4.22;;
38083;SDS011;23894;51.466;7.444;2023-03-16T02:24:24;8.82;;;4.55;;
38083;SDS011;23894;51.466;7.444;2023-03-16T02:26:28;8.05;;;4.07;;
38083;SDS011;23894;51.466;7.444;2023-03-16T02:28:36;8.18;;;4.22;;
38083;SDS011;23894;51.466;7.444;2023-03-16T02:30:44;7.85;;;4.20;;
38083;SDS011;23894;51.466;7.444;2023-03-16T02:32:46;8.55;;;4.20;;
38083;SDS011;23894;51.466;7.444;2023-03-16T02:34:50;12.52;;;4.15;;
38083;SDS011;23894;51.466;7.444;2023-03-16T02:36:51;8.20;;;3.97;;
38083;SDS011;23894;51.466;7.444;2023-03-16T02:38:52;8.20;;;4.22;;
38083;SDS011;23894;51.466;7.444;2023-03-16T02:40:58;10.68;;;4.47;;
38083;SDS011;23894;51.466;7.444;2023-03-16T02:43:04;6.50;;;3.80;;
38083;SDS011;23894;51.466;7.444;2023-03-16T02:45:06;9.52;;;4.20;;
38083;SDS011;23894;51.466;7.444;2023-03-16T02:51:15;9.60;;;4.00;;
38083;SDS011;23894;51.466;7.444;2023-03-16T02:53:16;9.63;;;3.85;;
38083;SDS011;23894;51.466;7.444;2023-03-16T02:55:17;8.57;;;3.72;;
38083;SDS011;23894;51.466;7.444;2023-03-16T02:57:18;8.90;;;4.00;;
38083;SDS011;23894;51.466;7.444;2023-03-16T02:59:20;8.43;;;3.88;;
38083;SDS011;23894;51.466;7.444;2023-03-16T03:01:21;8.25;;;3.85;;
38083;SDS011;23894;51.466;7.444;2023-03-16T03:03:22;7.07;;;3.60;;
38083;SDS011;23894;51.466;7.444;2023-03-16T03:05:23;8.82;;;4.28;;
38083;SDS011;23894;51.466;7.444;2023-03-16T03:09:30;7.03;;;4.10;;
38083;SDS011;23894;51.466;7.444;2023-03-16T03:13:33;9.02;;;4.18;;
38083;SDS011;23894;51.466;7.444;2023-03-16T03:17:35;5.90;;;3.35;;
38083;SDS011;23894;51.466;7.444;2023-03-16T03:19:36;8.90;;;4.10;;
38083;SDS011;23894;51.466;7.444;2023-03-16T03:21:38;7.55;;;4.57;;
38083;SDS011;23894;51.466;7.444;2023-03-16T03:23:39;6.78;;;3.90;;
38083;SDS011;23894;51.466;7.444;2023-03-16T03:27:41;7.65;;;3.88;;
38083;SDS011;23894;51.466;7.444;2023-03-16T03:29:43;7.43;;;3.83;;
38083;SDS011;23894;51.466;7.444;2023-03-16T03:31:44;7.80;;;3.88;;
38083;SDS011;23894;51.466;7.444;2023-03-16T03:33:47;9.35;;;4.05;;
38083;SDS011;23894;51.466;7.444;2023-03-16T03:35:52;7.35;;;3.85;;
38083;SDS011;23894;51.466;7.444;2023-03-16T03:37:54;7.55;;;3.95;;
38083;SDS011;23894;51.466;7.444;2023-03-16T03:39:55;7.82;;;3.88;;
38083;SDS011;23894;51.466;7.444;2023-03-16T03:41:56;8.05;;;3.92;;
38083;SDS011;23894;51.466;7.444;2023-03-16T03:43:57;6.53;;;3.58;;
38083;SDS011;23894;51.466;7.444;2023-03-16T03:45:59;6.90;;;3.72;;
38083;SDS011;23894;51.466;7.444;2023-03-16T03:48:00;7.25;;;3.78;;
38083;SDS011;23894;51.466;7.444;2023-03-16T03:52:02;10.07;;;3.90;;
38083;SDS011;23894;51.466;7.444;2023-03-16T03:54:04;7.03;;;3.45;;
38083;SDS011;23894;51.466;7.444;2023-03-16T03:56:05;7.43;;;3.78;;
38083;SDS011;23894;51.466;7.444;2023-03-16T04:00:07;7.28;;;3.58;;
38083;SDS011;23894;51.466;7.444;2023-03-16T04:02:10;7.47;;;3.83;;
38083;SDS011;23894;51.466;7.444;2023-03-16T04:04:12;8.32;;;3.63;;
38083;SDS011;23894;51.466;7.444;2023-03-16T04:06:13;7.07;;;3.50;;
38083;SDS011;23894;51.466;7.444;2023-03-16T04:08:14;7.80;;;3.63;;
38083;SDS011;23894;51.466;7.444;2023-03-16T04:10:15;8.05;;;3.45;;
38083;SDS011;23894;51.466;7.444;2023-03-16T04:12:16;7.38;;;3.70;;
38083;SDS011;23894;51.466;7.444;2023-03-16T04:14:17;6.63;;;3.72;;
38083;SDS011;23894;51.466;7.444;2023-03-16T04:16:18;8.10;;;3.30;;
38083;SDS011;23894;51.466;7.444;2023-03-16T04:18:20;6.82;;;3.75;;
38083;SDS011;23894;51.466;7.444;2023-03-16T04:20:21;9.57;;;3.63;;
38083;SDS011;23894;51.466;7.444;2023-03-16T04:22:22;6.40;;;3.33;;
38083;SDS011;23894;51.466;7.444;2023-03-16T04:24:23;6.55;;;3.55;;
38083;SDS011;23894;51.466;7.444;2023-03-16T04:26:24;7.93;;;3.35;;
38083;SDS011;23894;51.466;7.444;2023-03-16T04:28:25;9.82;;;3.63;;
38083;SDS011;23894;51.466;7.444;2023-03-16T04:30:26;6.85;;;3.40;;
38083;SDS011;23894;51.466;7.444;2023-03-16T04:32:29;7.20;;;3.10;;
38083;SDS011;23894;51.466;7.444;2023-03-16T04:34:30;6.53;;;3.45;;
38083;SDS011;23894;51.466;7.444;2023-03-16T04:36:31;6.90;;;3.50;;
38083;SDS011;23894;51.466;7.444;2023-03-16T04:40:33;6.88;;;3.30;;
38083;SDS011;23894;51.466;7.444;2023-03-16T04:42:34;11.30;;;3.53;;
38083;SDS011;23894;51.466;7.444;2023-03-16T04:44:35;6.53;;;3.15;;
38083;SDS011;23894;51.466;7.444;2023-03-16T04:46:43;6.20;;;3.47;;
38083;SDS011;23894;51.466;7.444;2023-03-16T04:48:44;9.07;;;3.95;;
38083;SDS011;23894;51.466;7.444;2023-03-16T04:50:46;7.03;;;3.45;;
38083;SDS011;23894;51.466;7.444;2023-03-16T04:52:47;8.13;;;3.05;;
38083;SDS011;23894;51.466;7.444;2023-03-16T04:54:48;8.02;;;3.25;;
38083;SDS011;23894;51.466;7.444;2023-03-16T04:56:49;6.60;;;3.05;;
38083;SDS011;23894;51.466;7.444;2023-03-16T04:58:51;7.00;;;3.50;;
38083;SDS011;23894;51.466;7.444;2023-03-16T05:02:54;5.05;;;2.88;;
38083;SDS011;23894;51.466;7.444;2023-03-16T05:04:55;8.27;;;3.65;;
38083;SDS011;23894;51.466;7.444;2023-03-16T05:06:56;7.53;;;3.35;;
38083;SDS011;23894;51.466;7.444;2023-03-16T05:08:58;8.30;;;3.45;;
38083;SDS011;23894;51.466;7.444;2023-03-16T05:10:59;6.55;;;3.53;;
38083;SDS011;23894;51.466;7.444;2023-03-16T05:13:00;8.68;;;3.90;;
38083;SDS011;23894;51.466;7.444;2023-03-16T05:17:02;7.20;;;3.70;;
38083;SDS011;23894;51.466;7.444;2023-03-16T05:19:04;7.10;;;4.10;;
38083;SDS011;23894;51.466;7.444;2023-03-16T05:21:08;7.78;;;4.70;;
38083;SDS011;23894;51.466;7.444;2023-03-16T05:23:09;8.20;;;4.40;;
38083;SDS011;23894;51.466;7.444;2023-03-16T05:25:11;9.93;;;4.57;;
38083;SDS011;23894;51.466;7.444;2023-03-16T05:27:15;7.78;;;4.43;;
38083;SDS011;23894;51.466;7.444;2023-03-16T05:29:16;9.20;;;4.90;;
38083;SDS011;23894;51.466;7.444;2023-03-16T05:31:17;9.60;;;5.50;;
38083;SDS011;23894;51.466;7.444;2023-03-16T05:33:18;10.07;;;5.90;;
38083;SDS011;23894;51.466;7.444;2023-03-16T05:35:20;8.98;;;5.45;;
38083;SDS011;23894;51.466;7.444;2023-03-16T05:37:21;10.57;;;5.82;;
38083;SDS011;23894;51.466;7.444;2023-03-16T05:39:23;9.60;;;5.70;;
38083;SDS011;23894;51.466;7.444;2023-03-16T05:43:25;9.57;;;6.00;;
38083;SDS011;23894;51.466;7.444;2023-03-16T05:45:28;10.45;;;6.28;;
38083;SDS011;23894;51.466;7.444;2023-03-16T05:47:29;9.77;;;5.82;;
38083;SDS011;23894;51.466;7.444;2023-03-16T05:49:30;10.32;;;5.90;;
38083;SDS011;23894;51.466;7.444;2023-03-16T05:51:30;8.15;;;5.80;;
38083;SDS011;23894;51.466;7.444;2023-03-16T05:53:32;10.25;;;5.95;;
38083;SDS011;23894;51.466;7.444;2023-03-16T05:55:34;8.88;;;5.80;;
38083;SDS011;23894;51.466;7.444;2023-03-16T05:57:35;8.55;;;5.90;;
38083;SDS011;23894;51.466;7.444;2023-03-16T05:59:36;9.70;;;5.72;;
38083;SDS011;23894;51.466;7.444;2023-03-16T06:01:37;12.77;;;5.90;;
38083;SDS011;23894;51.466;7.444;2023-03-16T06:03:39;10.55;;;5.57;;
38083;SDS011;23894;51.466;7.444;2023-03-16T06:05:40;10.13;;;5.63;;
38083;SDS011;23894;51.466;7.444;2023-03-16T06:07:41;8.88;;;5.40;;
38083;SDS011;23894;51.466;7.444;2023-03-16T06:09:42;8.88;;;5.85;;
38083;SDS011;23894;51.466;7.444;2023-03-16T06:11:43;10.45;;;5.55;;
38083;SDS011;23894;51.466;7.444;2023-03-16T06:13:44;10.50;;;5.68;;
38083;SDS011;23894;51.466;7.444;2023-03-16T06:15:45;10.05;;;5.20;;
38083;SDS011;23894;51.466;7.444;2023-03-16T06:17:46;9.70;;;5.10;;
38083;SDS011;23894;51.466;7.444;2023-03-16T06:19:47;8.70;;;5.13;;
38083;SDS011;23894;51.466;7.444;2023-03-16T06:21:48;8.27;;;4.88;;
38083;SDS011;23894;51.466;7.444;2023-03-16T06:23:49;8.85;;;4.78;;
38083;SDS011;23894;51.466;7.444;2023-03-16T06:25:50;8.15;;;5.40;;
38083;SDS011;23894;51.466;7.444;2023-03-16T06:27:54;9.63;;;4.50;;
38083;SDS011;23894;51.466;7.444;2023-03-16T06:29:55;9.23;;;5.07;;
38083;SDS011;23894;51.466;7.444;2023-03-16T06:31:56;8.25;;;5.00;;
38083;SDS011;23894;51.466;7.444;2023-03-16T06:33:57;6.88;;;4.40;;
38083;SDS011;23894;51.466;7.444;2023-03-16T06:35:58;9.13;;;5.25;;
38083;SDS011;23894;51.466;7.444;2023-03-16T06:38:00;8.60;;;4.80;;
38083;SDS011;23894;51.466;7.444;2023-03-16T06:40:01;8.52;;;4.53;;
38083;SDS011;23894;51.466;7.444;2023-03-16T06:42:03;9.27;;;4.93;;
38083;SDS011;23894;51.466;7.444;2023-03-16T06:44:04;9.55;;;4.55;;
38083;SDS011;23894;51.466;7.444;2023-03-16T06:46:05;8.93;;;4.68;;
38083;SDS011;23894;51.466;7.444;2023-03-16T06:48:06;7.90;;;4.32;;
38083;SDS011;23894;51.466;7.444;2023-03-16T06:50:09;7.25;;;4.47;;
38083;SDS011;23894;51.466;7.444;2023-03-16T06:52:11;7.85;;;4.25;;
38083;SDS011;23894;51.466;7.444;2023-03-16T06:54:12;8.60;;;4.38;;
38083;SDS011;23894;51.466;7.444;2023-03-16T06:56:13;8.43;;;4.63;;
38083;SDS011;23894;51.466;7.444;2023-03-16T06:58:14;8.45;;;4.55;;
38083;SDS011;23894;51.466;7.444;2023-03-16T07:00:15;7.38;;;4.47;;
38083;SDS011;23894;51.466;7.444;2023-03-16T07:04:18;9.00;;;5.05;;
38083;SDS011;23894;51.466;7.444;2023-03-16T07:06:20;8.77;;;4.97;;
38083;SDS011;23894;51.466;7.444;2023-03-16T07:08:21;8.65;;;4.85;;
38083;SDS011;23894;51.466;7.444;2023-03-16T07:10:22;7.53;;;4.78;;
38083;SDS011;23894;51.466;7.444;2023-03-16T07:12:24;8.07;;;4.97;;
38083;SDS011;23894;51.466;7.444;2023-03-16T07:14:25;8.40;;;4.95;;
38083;SDS011;23894;51.466;7.444;2023-03-16T07:18:27;8.60;;;5.05;;
38083;SDS011;23894;51.466;7.444;2023-03-16T07:20:29;8.48;;;5.07;;
38083;SDS011;23894;51.466;7.444;2023-03-16T07:22:32;8.10;;;4.78;;
38083;SDS011;23894;51.466;7.444;2023-03-16T07:24:33;10.45;;;4.80;;
38083;SDS011;23894;51.466;7.444;2023-03-16T07:26:34;8.45;;;4.88;;
38083;SDS011;23894;51.466;7.444;2023-03-16T07:28:35;10.23;;;5.00;;
38083;SDS011;23894;51.466;7.444;2023-03-16T07:30:36;8.77;;;4.80;;
38083;SDS011;23894;51.466;7.444;2023-03-16T07:34:38;8.82;;;4.82;;
38083;SDS011;23894;51.466;7.444;2023-03-16T07:36:40;7.53;;;4.80;;
38083;SDS011;23894;51.466;7.444;2023-03-16T07:38:41;8.10;;;5.43;;
38083;SDS011;23894;51.466;7.444;2023-03-16T07:40:42;7.65;;;4.75;;
38083;SDS011;23894;51.466;7.444;2023-03-16T07:42:43;9.00;;;4.75;;
38083;SDS011;23894;51.466;7.444;2023-03-16T07:44:44;7.60;;;4.50;;
38083;SDS011;23894;51.466;7.444;2023-03-16T07:46:45;6.85;;;4.43;;
38083;SDS011;23894;51.466;7.444;2023-03-16T07:48:46;9.32;;;5.22;;
38083;SDS011;23894;51.466;7.444;2023-03-16T07:50:48;7.25;;;4.57;;
38083;SDS011;23894;51.466;7.444;2023-03-16T07:54:50;7.55;;;4.63;;
38083;SDS011;23894;51.466;7.444;2023-03-16T07:56:51;9.18;;;5.00;;
38083;SDS011;23894;51.466;7.444;2023-03-16T07:58:52;7.72;;;4.63;;
38083;SDS011;23894;51.466;7.444;2023-03-16T08:00:56;9.20;;;4.68;;
38083;SDS011;23894;51.466;7.444;2023-03-16T08:02:58;7.15;;;4.63;;
38083;SDS011;23894;51.466;7.444;2023-03-16T08:04:59;7.72;;;4.20;;
38083;SDS011;23894;51.466;7.444;2023-03-16T08:07:00;7.80;;;4.53;;
38083;SDS011;23894;51.466;7.444;2023-03-16T08:09:01;7.63;;;4.93;;
38083;SDS011;23894;51.466;7.444;2023-03-16T08:11:02;9.85;;;4.07;;
38083;SDS011;23894;51.466;7.444;2023-03-16T08:13:03;7.88;;;3.90;;
38083;SDS011;23894;51.466;7.444;2023-03-16T08:15:04;6.82;;;4.20;;
38083;SDS011;23894;51.466;7.444;2023-03-16T08:17:05;9.88;;;4.25;;
38083;SDS011;23894;51.466;7.444;2023-03-16T08:19:06;7.35;;;4.85;;
38083;SDS011;23894;51.466;7.444;2023-03-16T08:21:08;6.38;;;4.00;;
38083;SDS011;23894;51.466;7.444;2023-03-16T08:23:09;6.82;;;3.90;;
38083;SDS011;23894;51.466;7.444;2023-03-16T08:25:12;6.45;;;4.22;;
38083;SDS011;23894;51.466;7.444;2023-03-16T08:27:13;7.68;;;4.30;;
38083;SDS011;23894;51.466;7.444;2023-03-16T08:29:15;7.13;;;3.85;;
38083;SDS011;23894;51.466;7.444;2023-03-16T08:31:18;7.72;;;4.13;;
38083;SDS011;23894;51.466;7.444;2023-03-16T08:33:20;7.47;;;4.32;;
38083;SDS011;23894;51.466;7.444;2023-03-16T08:35:21;6.13;;;4.03;;
38083;SDS011;23894;51.466;7.444;2023-03-16T08:37:22;7.63;;;3.70;;
38083;SDS011;23894;51.466;7.444;2023-03-16T08:39:23;6.45;;;4.13;;
38083;SDS011;23894;51.466;7.444;2023-03-16T08:41:24;8.43;;;4.00;;
38083;SDS011;23894;51.466;7.444;2023-03-16T08:43:25;7.00;;;4.05;;
38083;SDS011;23894;51.466;7.444;2023-03-16T08:45:26;7.70;;;4.22;;
38083;SDS011;23894;51.466;7.444;2023-03-16T08:47:27;7.68;;;4.20;;
38083;SDS011;23894;51.466;7.444;2023-03-16T08:49:28;7.95;;;4.20;;
38083;SDS011;23894;51.466;7.444;2023-03-16T08:51:29;7.78;;;3.90;;
38083;SDS011;23894;51.466;7.444;2023-03-16T08:53:31;8.90;;;4.07;;
38083;SDS011;23894;51.466;7.444;2023-03-16T08:55:32;8.32;;;4.38;;
38083;SDS011;23894;51.466;7.444;2023-03-16T08:57:34;7.90;;;3.70;;
38083;SDS011;23894;51.466;7.444;2023-03-16T08:59:36;6.82;;;4.18;;
38083;SDS011;23894;51.466;7.444;2023-03-16T09:01:37;6.40;;;3.85;;
38083;SDS011;23894;51.466;7.444;2023-03-16T09:03:39;6.90;;;3.95;;
38083;SDS011;23894;51.466;7.444;2023-03-16T09:05:41;6.97;;;3.90;;
38083;SDS011;23894;51.466;7.444;2023-03-16T09:07:42;7.20;;;4.47;;
38083;SDS011;23894;51.466;7.444;2023-03-16T09:09:43;8.63;;;4.18;;
38083;SDS011;23894;51.466;7.444;2023-03-16T09:11:45;6.50;;;3.65;;
38083;SDS011;23894;51.466;7.444;2023-03-16T09:13:46;6.78;;;4.20;;
38083;SDS011;23894;51.466;7.444;2023-03-16T09:15:49;7.22;;;3.80;;
38083;SDS011;23894;51.466;7.444;2023-03-16T09:17:50;7.60;;;3.78;;
38083;SDS011;23894;51.466;7.444;2023-03-16T09:19:52;6.07;;;3.50;;
38083;SDS011;23894;51.466;7.444;2023-03-16T09:21:53;6.72;;;3.85;;
38083;SDS011;23894;51.466;7.444;2023-03-16T09:23:54;6.50;;;3.55;;
38083;SDS011;23894;51.466;7.444;2023-03-16T09:25:56;6.70;;;3.50;;
38083;SDS011;23894;51.466;7.444;2023-03-16T09:27:58;6.28;;;3.53;;
38083;SDS011;23894;51.466;7.444;2023-03-16T09:29:59;6.88;;;3.97;;
38083;SDS011;23894;51.466;7.444;2023-03-16T09:32:01;7.32;;;4.32;;
38083;SDS011;23894;51.466;7.444;2023-03-16T09:34:03;6.05;;;3.45;;
38083;SDS011;23894;51.466;7.444;2023-03-16T09:36:04;7.40;;;3.90;;
38083;SDS011;23894;51.466;7.444;2023-03-16T09:40:06;6.95;;;3.40;;
38083;SDS011;23894;51.466;7.444;2023-03-16T09:46:28;5.75;;;3.50;;
38083;SDS011;23894;51.466;7.444;2023-03-16T09:48:32;6.95;;;3.40;;
38083;SDS011;23894;51.466;7.444;2023-03-16T09:50:36;7.93;;;3.72;;
38083;SDS011;23894;51.466;7.444;2023-03-16T09:54:46;6.05;;;3.35;;
38083;SDS011;23894;51.466;7.444;2023-03-16T09:56:48;6.65;;;3.42;;
38083;SDS011;23894;51.466;7.444;2023-03-16T09:58:51;6.78;;;3.47;;
38083;SDS011;23894;51.466;7.444;2023-03-16T10:01:00;5.65;;;3.40;;
38083;SDS011;23894;51.466;7.444;2023-03-16T10:05:26;6.65;;;3.65;;
38083;SDS011;23894;51.466;7.444;2023-03-16T10:09:42;8.43;;;3.50;;
38083;SDS011;23894;51.466;7.444;2023-03-16T10:11:47;7.15;;;3.70;;
38083;SDS011;23894;51.466;7.444;2023-03-16T10:15:56;7.40;;;3.83;;
38083;SDS011;23894;51.466;7.444;2023-03-16T10:18:12;5.75;;;3.25;;
38083;SDS011;23894;51.466;7.444;2023-03-16T10:20:18;7.35;;;3.83;;
38083;SDS011;23894;51.466;7.444;2023-03-16T10:22:21;7.80;;;3.72;;
38083;SDS011;23894;51.466;7.444;2023-03-16T10:26:34;7.45;;;3.40;;
38083;SDS011;23894;51.466;7.444;2023-03-16T10:28:38;6.20;;;3.72;;
38083;SDS011;23894;51.466;7.444;2023-03-16T10:30:39;7.53;;;3.28;;
38083;SDS011;23894;51.466;7.444;2023-03-16T10:32:41;6.60;;;3.13;;
38083;SDS011;23894;51.466;7.444;2023-03-16T10:34:42;6.13;;;3.42;;
38083;SDS011;23894;51.466;7.444;2023-03-16T10:36:45;5.82;;;3.47;;
38083;SDS011;23894;51.466;7.444;2023-03-16T10:38:50;7.90;;;4.10;;
38083;SDS011;23894;51.466;7.444;2023-03-16T10:40:54;5.78;;;3.30;;
38083;SDS011;23894;51.466;7.444;2023-03-16T10:42:56;7.15;;;3.70;;
38083;SDS011;23894;51.466;7.444;2023-03-16T10:45:04;10.88;;;4.00;;
38083;SDS011;23894;51.466;7.444;2023-03-16T10:47:05;6.90;;;4.00;;
38083;SDS011;23894;51.466;7.444;2023-03-16T10:49:26;6.68;;;3.40;;
38083;SDS011;23894;51.466;7.444;2023-03-16T10:51:28;6.50;;;3.47;;
38083;SDS011;23894;51.466;7.444;2023-03-16T10:53:30;7.00;;;3.53;;
38083;SDS011;23894;51.466;7.444;2023-03-16T10:55:40;6.88;;;3.55;;
38083;SDS011;23894;51.466;7.444;2023-03-16T10:57:46;6.35;;;3.25;;
38083;SDS011;23894;51.466;7.444;2023-03-16T10:59:51;7.38;;;3.35;;
38083;SDS011;23894;51.466;7.444;2023-03-16T11:01:52;7.18;;;3.35;;
38083;SDS011;23894;51.466;7.444;2023-03-16T11:03:54;6.20;;;3.40;;
38083;SDS011;23894;51.466;7.444;2023-03-16T11:05:57;7.15;;;3.20;;
38083;SDS011;23894;51.466;7.444;2023-03-16T11:09:59;6.97;;;3.50;;
38083;SDS011;23894;51.466;7.444;2023-03-16T11:12:11;6.28;;;3.50;;
38083;SDS011;23894;51.466;7.444;2023-03-16T11:14:13;6.20;;;3.17;;
38083;SDS011;23894;51.466;7.444;2023-03-16T11:18:27;6.97;;;3.85;;
38083;SDS011;23894;51.466;7.444;2023-03-16T11:20:29;6.00;;;3.40;;
38083;SDS011;23894;51.466;7.444;2023-03-16T11:22:32;7.05;;;3.47;;
38083;SDS011;23894;51.466;7.444;2023-03-16T11:24:39;6.15;;;3.30;;
38083;SDS011;23894;51.466;7.444;2023-03-16T11:26:42;6.80;;;3.42;;
38083;SDS011;23894;51.466;7.444;2023-03-16T11:28:45;6.57;;;3.70;;
38083;SDS011;23894;51.466;7.444;2023-03-16T11:32:49;9.40;;;3.10;;
38083;SDS011;23894;51.466;7.444;2023-03-16T11:34:52;6.22;;;3.00;;
38083;SDS011;23894;51.466;7.444;2023-03-16T11:36:54;6.07;;;3.00;;
38083;SDS011;23894;51.466;7.444;2023-03-16T11:39:02;5.78;;;2.80;;
38083;SDS011;23894;51.466;7.444;2023-03-16T11:41:18;7.05;;;2.92;;
38083;SDS011;23894;51.466;7.444;2023-03-16T11:45:38;4.82;;;2.63;;
38083;SDS011;23894;51.466;7.444;2023-03-16T11:47:48;7.72;;;3.00;;
38083;SDS011;23894;51.466;7.444;2023-03-16T11:51:58;7.55;;;2.80;;
38083;SDS011;23894;51.466;7.444;2023-03-16T11:58:38;5.30;;;2.75;;
38083;SDS011;23894;51.466;7.444;2023-03-16T12:03:11;7.07;;;2.47;;
38083;SDS011;23894;51.466;7.444;2023-03-16T12:07:21;7.70;;;2.80;;
38083;SDS011;23894;51.466;7.444;2023-03-16T12:11:30;4.80;;;2.50;;
38083;SDS011;23894;51.466;7.444;2023-03-16T12:13:36;7.05;;;2.13;;
38083;SDS011;23894;51.466;7.444;2023-03-16T12:15:53;5.60;;;2.35;;
38083;SDS011;23894;51.466;7.444;2023-03-16T12:17:58;6.00;;;2.60;;
38083;SDS011;23894;51.466;7.444;2023-03-16T12:22:06;6.45;;;2.65;;
38083;SDS011;23894;51.466;7.444;2023-03-16T12:24:16;7.10;;;2.40;;
38083;SDS011;23894;51.466;7.444;2023-03-16T12:26:18;5.40;;;2.30;;
38083;SDS011;23894;51.466;7.444;2023-03-16T12:28:22;6.18;;;2.22;;
38083;SDS011;23894;51.466;7.444;2023-03-16T12:30:31;6.63;;;2.35;;
38083;SDS011;23894;51.466;7.444;2023-03-16T12:34:43;4.80;;;2.10;;
38083;SDS011;23894;51.466;7.444;2023-03-16T12:36:56;5.28;;;1.95;;
38083;SDS011;23894;51.466;7.444;2023-03-16T12:43:49;7.60;;;2.20;;
38083;SDS011;23894;51.466;7.444;2023-03-16T12:49:54;6.80;;;2.42;;
38083;SDS011;23894;51.466;7.444;2023-03-16T12:52:04;6.80;;;2.03;;
38083;SDS011;23894;51.466;7.444;2023-03-16T12:54:17;4.65;;;2.10;;
38083;SDS011;23894;51.466;7.444;2023-03-16T12:56:19;5.88;;;2.05;;
38083;SDS011;23894;51.466;7.444;2023-03-16T12:58:20;6.07;;;2.10;;
38083;SDS011;23894;51.466;7.444;2023-03-16T13:00:31;5.57;;;2.08;;
38083;SDS011;23894;51.466;7.444;2023-03-16T13:02:34;6.87;;;2.10;;
38083;SDS011;23894;51.466;7.444;2023-03-16T13:04:39;5.82;;;2.10;;
38083;SDS011;23894;51.466;7.444;2023-03-16T13:06:43;4.97;;;1.65;;
38083;SDS011;23894;51.466;7.444;2023-03-16T13:08:46;5.50;;;1.83;;
38083;SDS011;23894;51.466;7.444;2023-03-16T13:13:15;5.63;;;1.98;;
38083;SDS011;23894;51.466;7.444;2023-03-16T13:17:25;5.72;;;1.83;;
38083;SDS011;23894;51.466;7.444;2023-03-16T13:19:28;5.63;;;1.95;;
38083;SDS011;23894;51.466;7.444;2023-03-16T13:21:38;5.18;;;2.00;;
38083;SDS011;23894;51.466;7.444;2023-03-16T13:23:53;6.40;;;2.30;;
38083;SDS011;23894;51.466;7.444;2023-03-16T13:27:59;6.55;;;2.08;;
38083;SDS011;23894;51.466;7.444;2023-03-16T13:30:01;4.88;;;2.08;;
38083;SDS011;23894;51.466;7.444;2023-03-16T13:32:07;5.95;;;1.90;;
38083;SDS011;23894;51.466;7.444;2023-03-16T13:34:18;6.50;;;2.22;;
38083;SDS011;23894;51.466;7.444;2023-03-16T13:36:20;6.82;;;2.35;;
38083;SDS011;23894;51.466;7.444;2023-03-16T13:40:25;6.28;;;2.10;;
38083;SDS011;23894;51.466;7.444;2023-03-16T13:42:30;4.97;;;1.95;;
38083;SDS011;23894;51.466;7.444;2023-03-16T13:44:32;6.28;;;1.90;;
38083;SDS011;23894;51.466;7.444;2023-03-16T13:46:33;6.28;;;2.40;;
38083;SDS011;23894;51.466;7.444;2023-03-16T13:48:35;4.50;;;2.05;;
38083;SDS011;23894;51.466;7.444;2023-03-16T13:50:39;6.18;;;2.67;;
38083;SDS011;23894;51.466;7.444;2023-03-16T13:52:41;6.53;;;2.20;;
38083;SDS011;23894;51.466;7.444;2023-03-16T13:54:43;6.25;;;2.22;;
38083;SDS011;23894;51.466;7.444;2023-03-16T13:56:44;6.47;;;2.05;;
38083;SDS011;23894;51.466;7.444;2023-03-16T13:58:46;6.32;;;1.85;;
38083;SDS011;23894;51.466;7.444;2023-03-16T14:00:48;5.72;;;2.15;;
38083;SDS011;23894;51.466;7.444;2023-03-16T14:04:50;5.38;;;2.20;;